sensor_id;sensor_type;location;lat;lon;timestamp;temperature;humidity
35363;DHT22;21463;47.480;8.214;2023-05-07T00:00:51;21.00;53.60
35363;DHT22;21463;47.480;8.214;2023-05-07T00:01:55;21.00;53.50
35363;DHT22;21463;47.480;8.214;2023-05-07T00:02:58;21.00;53.50
35363;DHT22;21463;47.480;8.214;2023-05-07T00:04:00;21.00;53.50
35363;DHT22;21463;47.480;8.214;2023-05-07T00:05:03;21.00;53.50
35363;DHT22;21463;47.480;8.214;2023-05-07T00:06:06;20.90;53.50
35363;DHT22;21463;47.480;8.214;2023-05-07T00:07:08;21.10;53.60
35363;DHT22;21463;47.480;8.214;2023-05-07T00:08:11;21.00;53.60
35363;DHT22;21463;47.480;8.214;2023-05-07T00:09:13;21.00;53.50
35363;DHT22;21463;47.480;8.214;2023-05-07T00:10:16;21.00;53.60
35363;DHT22;21463;47.480;8.214;2023-05-07T00:11:18;21.00;53.60
35363;DHT22;21463;47.480;8.214;2023-05-07T00:12:22;21.00;53.60
35363;DHT22;21463;47.480;8.214;2023-05-07T00:13:27;21.00;53.60
35363;DHT22;21463;47.480;8.214;2023-05-07T00:14:33;21.00;53.50
35363;DHT22;21463;47.480;8.214;2023-05-07T00:15:35;21.00;53.60
35363;DHT22;21463;47.480;8.214;2023-05-07T00:16:38;21.00;53.60
35363;DHT22;21463;47.480;8.214;2023-05-07T00:17:40;21.00;53.60
35363;DHT22;21463;47.480;8.214;2023-05-07T00:18:42;21.00;53.60
35363;DHT22;21463;47.480;8.214;2023-05-07T00:19:45;21.00;53.60
35363;DHT22;21463;47.480;8.214;2023-05-07T00:20:49;21.00;53.60
35363;DHT22;21463;47.480;8.214;2023-05-07T00:21:52;21.00;53.60
35363;DHT22;21463;47.480;8.214;2023-05-07T00:22:57;21.00;53.60
35363;DHT22;21463;47.480;8.214;2023-05-07T00:23:59;21.00;53.60
35363;DHT22;21463;47.480;8.214;2023-05-07T00:25:02;21.00;53.60
35363;DHT22;21463;47.480;8.214;2023-05-07T00:26:05;21.00;53.60
35363;DHT22;21463;47.480;8.214;2023-05-07T00:27:07;21.00;53.60
35363;DHT22;21463;47.480;8.214;2023-05-07T00:28:09;21.00;53.60
35363;DHT22;21463;47.480;8.214;2023-05-07T00:29:12;21.00;53.60
35363;DHT22;21463;47.480;8.214;2023-05-07T00:30:14;21.00;53.60
35363;DHT22;21463;47.480;8.214;2023-05-07T00:31:17;21.00;53.60
35363;DHT22;21463;47.480;8.214;2023-05-07T00:32:19;21.00;53.60
35363;DHT22;21463;47.480;8.214;2023-05-07T00:33:22;21.00;53.60
35363;DHT22;21463;47.480;8.214;2023-05-07T00:34:24;21.00;53.60
35363;DHT22;21463;47.480;8.214;2023-05-07T00:35:28;21.00;54.20
35363;DHT22;21463;47.480;8.214;2023-05-07T00:36:30;21.00;53.60
35363;DHT22;21463;47.480;8.214;2023-05-07T00:37:32;21.00;54.20
35363;DHT22;21463;47.480;8.214;2023-05-07T00:38:35;21.00;53.60
35363;DHT22;21463;47.480;8.214;2023-05-07T00:39:37;21.00;53.60
35363;DHT22;21463;47.480;8.214;2023-05-07T00:40:40;21.00;54.20
35363;DHT22;21463;47.480;8.214;2023-05-07T00:41:42;20.90;53.50
35363;DHT22;21463;47.480;8.214;2023-05-07T00:42:45;21.00;53.60
35363;DHT22;21463;47.480;8.214;2023-05-07T00:43:49;21.00;53.60
35363;DHT22;21463;47.480;8.214;2023-05-07T00:44:53;21.10;53.60
35363;DHT22;21463;47.480;8.214;2023-05-07T00:45:58;21.00;53.60
35363;DHT22;21463;47.480;8.214;2023-05-07T00:47:01;21.00;53.60
35363;DHT22;21463;47.480;8.214;2023-05-07T00:48:04;21.00;53.60
35363;DHT22;21463;47.480;8.214;2023-05-07T00:49:07;21.00;53.60
35363;DHT22;21463;47.480;8.214;2023-05-07T00:50:10;21.00;53.60
35363;DHT22;21463;47.480;8.214;2023-05-07T00:51:15;21.00;53.60
35363;DHT22;21463;47.480;8.214;2023-05-07T00:52:17;21.00;53.60
35363;DHT22;21463;47.480;8.214;2023-05-07T00:53:21;21.00;53.60
35363;DHT22;21463;47.480;8.214;2023-05-07T00:54:24;21.00;53.60
35363;DHT22;21463;47.480;8.214;2023-05-07T00:55:26;20.90;53.50
35363;DHT22;21463;47.480;8.214;2023-05-07T00:56:29;21.00;53.60
35363;DHT22;21463;47.480;8.214;2023-05-07T00:57:33;21.00;53.60
35363;DHT22;21463;47.480;8.214;2023-05-07T00:58:38;21.00;53.60
35363;DHT22;21463;47.480;8.214;2023-05-07T00:59:41;21.00;53.60
35363;DHT22;21463;47.480;8.214;2023-05-07T01:00:45;21.00;53.60
35363;DHT22;21463;47.480;8.214;2023-05-07T01:01:48;21.00;53.60
35363;DHT22;21463;47.480;8.214;2023-05-07T01:02:51;21.00;53.60
35363;DHT22;21463;47.480;8.214;2023-05-07T01:03:54;21.00;53.60
35363;DHT22;21463;47.480;8.214;2023-05-07T01:04:57;21.00;53.60
35363;DHT22;21463;47.480;8.214;2023-05-07T01:06:03;21.00;53.60
35363;DHT22;21463;47.480;8.214;2023-05-07T01:07:07;21.00;53.60
35363;DHT22;21463;47.480;8.214;2023-05-07T01:08:12;21.00;53.60
35363;DHT22;21463;47.480;8.214;2023-05-07T01:09:16;21.00;53.60
35363;DHT22;21463;47.480;8.214;2023-05-07T01:10:19;21.00;53.60
35363;DHT22;21463;47.480;8.214;2023-05-07T01:11:22;21.00;53.60
35363;DHT22;21463;47.480;8.214;2023-05-07T01:12:25;21.00;53.60
35363;DHT22;21463;47.480;8.214;2023-05-07T01:13:27;21.00;53.60
35363;DHT22;21463;47.480;8.214;2023-05-07T01:14:30;21.10;53.70
35363;DHT22;21463;47.480;8.214;2023-05-07T01:15:35;21.00;53.60
35363;DHT22;21463;47.480;8.214;2023-05-07T01:16:37;21.00;53.60
35363;DHT22;21463;47.480;8.214;2023-05-07T01:17:40;21.00;53.60
35363;DHT22;21463;47.480;8.214;2023-05-07T01:18:48;21.00;53.60
35363;DHT22;21463;47.480;8.214;2023-05-07T01:19:51;21.00;53.60
35363;DHT22;21463;47.480;8.214;2023-05-07T01:20:58;21.00;53.60
35363;DHT22;21463;47.480;8.214;2023-05-07T01:22:07;21.00;53.60
35363;DHT22;21463;47.480;8.214;2023-05-07T01:23:19;21.00;53.60
35363;DHT22;21463;47.480;8.214;2023-05-07T01:24:23;21.00;53.60
35363;DHT22;21463;47.480;8.214;2023-05-07T01:25:26;21.00;53.60
35363;DHT22;21463;47.480;8.214;2023-05-07T01:26:32;21.00;53.60
35363;DHT22;21463;47.480;8.214;2023-05-07T01:27:34;21.00;53.60
35363;DHT22;21463;47.480;8.214;2023-05-07T01:28:38;21.00;53.60
35363;DHT22;21463;47.480;8.214;2023-05-07T01:29:41;21.00;53.60
35363;DHT22;21463;47.480;8.214;2023-05-07T01:30:44;21.00;53.60
35363;DHT22;21463;47.480;8.214;2023-05-07T01:31:50;21.00;53.60
35363;DHT22;21463;47.480;8.214;2023-05-07T01:33:13;21.00;53.60
35363;DHT22;21463;47.480;8.214;2023-05-07T01:34:17;21.00;53.60
35363;DHT22;21463;47.480;8.214;2023-05-07T01:35:24;21.00;53.60
35363;DHT22;21463;47.480;8.214;2023-05-07T01:36:27;21.00;53.60
35363;DHT22;21463;47.480;8.214;2023-05-07T01:37:31;21.00;53.60
35363;DHT22;21463;47.480;8.214;2023-05-07T01:38:33;21.00;53.60
35363;DHT22;21463;47.480;8.214;2023-05-07T01:39:37;21.00;53.60
35363;DHT22;21463;47.480;8.214;2023-05-07T01:40:41;21.00;53.60
35363;DHT22;21463;47.480;8.214;2023-05-07T01:41:44;20.90;53.50
35363;DHT22;21463;47.480;8.214;2023-05-07T01:42:47;21.00;53.60
35363;DHT22;21463;47.480;8.214;2023-05-07T01:43:50;21.00;53.60
35363;DHT22;21463;47.480;8.214;2023-05-07T01:44:54;21.00;53.60
35363;DHT22;21463;47.480;8.214;2023-05-07T01:45:57;20.90;53.50
35363;DHT22;21463;47.480;8.214;2023-05-07T01:46:59;21.00;53.60
35363;DHT22;21463;47.480;8.214;2023-05-07T01:48:03;21.00;53.60
35363;DHT22;21463;47.480;8.214;2023-05-07T01:49:06;21.00;53.60
35363;DHT22;21463;47.480;8.214;2023-05-07T01:50:08;21.00;53.60
35363;DHT22;21463;47.480;8.214;2023-05-07T01:51:12;21.00;53.60
35363;DHT22;21463;47.480;8.214;2023-05-07T01:52:15;21.00;53.60
35363;DHT22;21463;47.480;8.214;2023-05-07T01:53:17;21.00;53.60
35363;DHT22;21463;47.480;8.214;2023-05-07T01:54:19;21.00;53.60
35363;DHT22;21463;47.480;8.214;2023-05-07T01:55:32;21.00;53.60
35363;DHT22;21463;47.480;8.214;2023-05-07T01:56:35;21.10;53.60
35363;DHT22;21463;47.480;8.214;2023-05-07T01:57:38;21.00;54.20
35363;DHT22;21463;47.480;8.214;2023-05-07T01:58:40;21.00;53.60
35363;DHT22;21463;47.480;8.214;2023-05-07T01:59:50;20.90;53.50
35363;DHT22;21463;47.480;8.214;2023-05-07T02:00:52;21.00;53.60
35363;DHT22;21463;47.480;8.214;2023-05-07T02:01:55;20.90;53.50
35363;DHT22;21463;47.480;8.214;2023-05-07T02:02:58;21.00;53.60
35363;DHT22;21463;47.480;8.214;2023-05-07T02:04:12;21.00;53.60
35363;DHT22;21463;47.480;8.214;2023-05-07T02:05:15;21.00;53.60
35363;DHT22;21463;47.480;8.214;2023-05-07T02:06:19;20.90;53.50
35363;DHT22;21463;47.480;8.214;2023-05-07T02:07:22;21.00;53.60
35363;DHT22;21463;47.480;8.214;2023-05-07T02:08:25;20.90;53.50
35363;DHT22;21463;47.480;8.214;2023-05-07T02:09:27;21.00;53.50
35363;DHT22;21463;47.480;8.214;2023-05-07T02:10:31;21.00;53.50
35363;DHT22;21463;47.480;8.214;2023-05-07T02:11:34;21.00;53.60
35363;DHT22;21463;47.480;8.214;2023-05-07T02:12:36;21.00;53.60
35363;DHT22;21463;47.480;8.214;2023-05-07T02:13:38;21.00;53.50
35363;DHT22;21463;47.480;8.214;2023-05-07T02:14:41;21.00;53.60
35363;DHT22;21463;47.480;8.214;2023-05-07T02:15:43;21.00;53.60
35363;DHT22;21463;47.480;8.214;2023-05-07T02:16:49;21.00;53.50
35363;DHT22;21463;47.480;8.214;2023-05-07T02:17:58;21.00;53.60
35363;DHT22;21463;47.480;8.214;2023-05-07T02:19:04;21.00;53.50
35363;DHT22;21463;47.480;8.214;2023-05-07T02:20:10;21.00;53.50
35363;DHT22;21463;47.480;8.214;2023-05-07T02:21:16;21.00;53.50
35363;DHT22;21463;47.480;8.214;2023-05-07T02:22:18;21.00;53.60
35363;DHT22;21463;47.480;8.214;2023-05-07T02:23:21;21.00;53.60
35363;DHT22;21463;47.480;8.214;2023-05-07T02:24:24;21.00;53.50
35363;DHT22;21463;47.480;8.214;2023-05-07T02:25:26;21.00;53.50
35363;DHT22;21463;47.480;8.214;2023-05-07T02:26:29;21.00;53.60
35363;DHT22;21463;47.480;8.214;2023-05-07T02:27:31;21.00;53.60
35363;DHT22;21463;47.480;8.214;2023-05-07T02:28:34;21.00;53.50
35363;DHT22;21463;47.480;8.214;2023-05-07T02:29:40;21.00;53.60
35363;DHT22;21463;47.480;8.214;2023-05-07T02:30:42;21.00;53.50
35363;DHT22;21463;47.480;8.214;2023-05-07T02:31:45;21.00;53.50
35363;DHT22;21463;47.480;8.214;2023-05-07T02:32:48;21.00;53.50
35363;DHT22;21463;47.480;8.214;2023-05-07T02:33:50;21.00;53.50
35363;DHT22;21463;47.480;8.214;2023-05-07T02:34:53;20.90;53.50
35363;DHT22;21463;47.480;8.214;2023-05-07T02:35:55;21.00;53.50
35363;DHT22;21463;47.480;8.214;2023-05-07T02:36:58;21.00;53.50
35363;DHT22;21463;47.480;8.214;2023-05-07T02:38:03;21.00;53.50
35363;DHT22;21463;47.480;8.214;2023-05-07T02:39:06;21.20;53.60
35363;DHT22;21463;47.480;8.214;2023-05-07T02:40:09;21.00;53.50
35363;DHT22;21463;47.480;8.214;2023-05-07T02:41:11;21.00;53.50
35363;DHT22;21463;47.480;8.214;2023-05-07T02:42:14;21.00;53.50
35363;DHT22;21463;47.480;8.214;2023-05-07T02:43:16;21.00;53.50
35363;DHT22;21463;47.480;8.214;2023-05-07T02:44:21;20.90;53.50
35363;DHT22;21463;47.480;8.214;2023-05-07T02:45:25;21.00;53.50
35363;DHT22;21463;47.480;8.214;2023-05-07T02:46:29;21.00;53.50
35363;DHT22;21463;47.480;8.214;2023-05-07T02:47:36;21.00;53.50
35363;DHT22;21463;47.480;8.214;2023-05-07T02:48:39;21.00;53.50
35363;DHT22;21463;47.480;8.214;2023-05-07T02:49:42;21.00;53.50
35363;DHT22;21463;47.480;8.214;2023-05-07T02:50:44;21.00;53.50
35363;DHT22;21463;47.480;8.214;2023-05-07T02:51:48;21.00;53.50
35363;DHT22;21463;47.480;8.214;2023-05-07T02:52:55;21.00;53.50
35363;DHT22;21463;47.480;8.214;2023-05-07T02:53:58;21.00;53.40
35363;DHT22;21463;47.480;8.214;2023-05-07T02:55:00;21.70;53.90
35363;DHT22;21463;47.480;8.214;2023-05-07T02:56:02;21.00;53.50
35363;DHT22;21463;47.480;8.214;2023-05-07T02:57:05;21.00;53.40
35363;DHT22;21463;47.480;8.214;2023-05-07T02:58:07;21.00;53.50
35363;DHT22;21463;47.480;8.214;2023-05-07T02:59:12;20.90;53.40
35363;DHT22;21463;47.480;8.214;2023-05-07T03:00:17;21.00;53.50
35363;DHT22;21463;47.480;8.214;2023-05-07T03:01:40;21.00;53.40
35363;DHT22;21463;47.480;8.214;2023-05-07T03:02:46;20.90;53.40
35363;DHT22;21463;47.480;8.214;2023-05-07T03:03:49;21.00;53.50
35363;DHT22;21463;47.480;8.214;2023-05-07T03:04:51;21.00;53.50
35363;DHT22;21463;47.480;8.214;2023-05-07T03:05:54;21.00;53.50
35363;DHT22;21463;47.480;8.214;2023-05-07T03:06:57;21.00;53.40
35363;DHT22;21463;47.480;8.214;2023-05-07T03:08:01;21.00;53.40
35363;DHT22;21463;47.480;8.214;2023-05-07T03:09:03;21.00;53.40
35363;DHT22;21463;47.480;8.214;2023-05-07T03:10:06;20.90;53.30
35363;DHT22;21463;47.480;8.214;2023-05-07T03:11:08;21.00;53.40
35363;DHT22;21463;47.480;8.214;2023-05-07T03:12:11;21.00;53.40
35363;DHT22;21463;47.480;8.214;2023-05-07T03:13:13;20.90;53.40
35363;DHT22;21463;47.480;8.214;2023-05-07T03:14:16;21.00;53.40
35363;DHT22;21463;47.480;8.214;2023-05-07T03:15:18;21.00;53.40
35363;DHT22;21463;47.480;8.214;2023-05-07T03:16:21;21.00;53.40
35363;DHT22;21463;47.480;8.214;2023-05-07T03:17:23;21.00;53.40
35363;DHT22;21463;47.480;8.214;2023-05-07T03:18:26;21.00;53.40
35363;DHT22;21463;47.480;8.214;2023-05-07T03:19:28;21.00;53.40
35363;DHT22;21463;47.480;8.214;2023-05-07T03:20:33;20.90;53.30
35363;DHT22;21463;47.480;8.214;2023-05-07T03:21:36;21.00;53.40
35363;DHT22;21463;47.480;8.214;2023-05-07T03:22:42;21.00;53.40
35363;DHT22;21463;47.480;8.214;2023-05-07T03:23:44;21.00;53.40
35363;DHT22;21463;47.480;8.214;2023-05-07T03:24:47;21.00;53.40
35363;DHT22;21463;47.480;8.214;2023-05-07T03:25:49;21.00;53.40
35363;DHT22;21463;47.480;8.214;2023-05-07T03:26:52;21.00;53.40
35363;DHT22;21463;47.480;8.214;2023-05-07T03:27:54;20.90;53.30
35363;DHT22;21463;47.480;8.214;2023-05-07T03:29:01;21.00;53.40
35363;DHT22;21463;47.480;8.214;2023-05-07T03:30:04;21.00;53.30
35363;DHT22;21463;47.480;8.214;2023-05-07T03:31:06;21.00;53.30
35363;DHT22;21463;47.480;8.214;2023-05-07T03:32:08;21.00;53.30
35363;DHT22;21463;47.480;8.214;2023-05-07T03:33:11;21.00;53.30
35363;DHT22;21463;47.480;8.214;2023-05-07T03:34:15;21.00;53.30
35363;DHT22;21463;47.480;8.214;2023-05-07T03:35:19;21.00;53.30
35363;DHT22;21463;47.480;8.214;2023-05-07T03:36:21;21.00;53.30
35363;DHT22;21463;47.480;8.214;2023-05-07T03:37:24;20.90;53.30
35363;DHT22;21463;47.480;8.214;2023-05-07T03:38:26;20.90;53.20
35363;DHT22;21463;47.480;8.214;2023-05-07T03:39:29;21.00;53.30
35363;DHT22;21463;47.480;8.214;2023-05-07T03:40:33;21.00;53.30
35363;DHT22;21463;47.480;8.214;2023-05-07T03:41:36;21.00;53.30
35363;DHT22;21463;47.480;8.214;2023-05-07T03:42:39;21.00;53.30
35363;DHT22;21463;47.480;8.214;2023-05-07T03:43:42;21.00;53.30
35363;DHT22;21463;47.480;8.214;2023-05-07T03:44:46;20.90;53.20
35363;DHT22;21463;47.480;8.214;2023-05-07T03:45:49;21.00;53.30
35363;DHT22;21463;47.480;8.214;2023-05-07T03:46:56;20.90;53.20
35363;DHT22;21463;47.480;8.214;2023-05-07T03:47:59;21.00;53.30
35363;DHT22;21463;47.480;8.214;2023-05-07T03:49:01;20.30;52.90
35363;DHT22;21463;47.480;8.214;2023-05-07T03:50:04;21.00;53.20
35363;DHT22;21463;47.480;8.214;2023-05-07T03:51:07;21.00;53.20
35363;DHT22;21463;47.480;8.214;2023-05-07T03:52:09;20.90;53.20
35363;DHT22;21463;47.480;8.214;2023-05-07T03:53:12;20.90;53.20
35363;DHT22;21463;47.480;8.214;2023-05-07T03:54:15;21.00;53.20
35363;DHT22;21463;47.480;8.214;2023-05-07T03:55:19;20.90;53.20
35363;DHT22;21463;47.480;8.214;2023-05-07T03:56:27;20.60;53.00
35363;DHT22;21463;47.480;8.214;2023-05-07T03:57:31;21.10;53.30
35363;DHT22;21463;47.480;8.214;2023-05-07T03:58:34;20.90;53.10
35363;DHT22;21463;47.480;8.214;2023-05-07T03:59:42;21.00;53.20
35363;DHT22;21463;47.480;8.214;2023-05-07T04:00:45;20.90;53.10
35363;DHT22;21463;47.480;8.214;2023-05-07T04:01:59;21.00;53.70
35363;DHT22;21463;47.480;8.214;2023-05-07T04:03:06;21.00;53.20
35363;DHT22;21463;47.480;8.214;2023-05-07T04:04:08;21.00;53.20
35363;DHT22;21463;47.480;8.214;2023-05-07T04:05:11;21.00;53.20
35363;DHT22;21463;47.480;8.214;2023-05-07T04:06:15;20.90;53.10
35363;DHT22;21463;47.480;8.214;2023-05-07T04:07:19;21.00;53.70
35363;DHT22;21463;47.480;8.214;2023-05-07T04:08:24;21.00;53.20
35363;DHT22;21463;47.480;8.214;2023-05-07T04:09:29;21.00;53.20
35363;DHT22;21463;47.480;8.214;2023-05-07T04:10:32;20.90;53.10
35363;DHT22;21463;47.480;8.214;2023-05-07T04:11:38;20.90;53.00
35363;DHT22;21463;47.480;8.214;2023-05-07T04:12:44;21.00;53.10
35363;DHT22;21463;47.480;8.214;2023-05-07T04:13:51;21.00;53.10
35363;DHT22;21463;47.480;8.214;2023-05-07T04:14:57;21.40;53.30
35363;DHT22;21463;47.480;8.214;2023-05-07T04:16:00;20.90;53.00
35363;DHT22;21463;47.480;8.214;2023-05-07T04:17:03;21.00;53.10
35363;DHT22;21463;47.480;8.214;2023-05-07T04:18:05;21.00;53.10
35363;DHT22;21463;47.480;8.214;2023-05-07T04:19:12;21.00;53.10
35363;DHT22;21463;47.480;8.214;2023-05-07T04:20:15;21.00;53.10
35363;DHT22;21463;47.480;8.214;2023-05-07T04:21:20;20.90;53.00
35363;DHT22;21463;47.480;8.214;2023-05-07T04:22:24;20.90;53.00
35363;DHT22;21463;47.480;8.214;2023-05-07T04:23:27;21.00;53.10
35363;DHT22;21463;47.480;8.214;2023-05-07T04:24:31;20.90;53.00
35363;DHT22;21463;47.480;8.214;2023-05-07T04:25:36;21.00;53.00
35363;DHT22;21463;47.480;8.214;2023-05-07T04:27:01;21.00;53.00
35363;DHT22;21463;47.480;8.214;2023-05-07T04:28:04;20.90;52.90
35363;DHT22;21463;47.480;8.214;2023-05-07T04:29:08;21.00;53.00
35363;DHT22;21463;47.480;8.214;2023-05-07T04:30:11;21.00;53.00
35363;DHT22;21463;47.480;8.214;2023-05-07T04:31:14;21.00;53.00
35363;DHT22;21463;47.480;8.214;2023-05-07T04:32:17;21.00;53.00
35363;DHT22;21463;47.480;8.214;2023-05-07T04:33:20;20.90;52.90
35363;DHT22;21463;47.480;8.214;2023-05-07T04:34:24;20.90;52.90
35363;DHT22;21463;47.480;8.214;2023-05-07T04:35:27;21.00;53.00
35363;DHT22;21463;47.480;8.214;2023-05-07T04:36:30;21.00;53.00
35363;DHT22;21463;47.480;8.214;2023-05-07T04:37:36;21.00;53.00
35363;DHT22;21463;47.480;8.214;2023-05-07T04:38:39;20.90;52.90
35363;DHT22;21463;47.480;8.214;2023-05-07T04:39:42;21.00;52.90
35363;DHT22;21463;47.480;8.214;2023-05-07T04:40:47;20.90;52.90
35363;DHT22;21463;47.480;8.214;2023-05-07T04:41:53;20.90;52.80
35363;DHT22;21463;47.480;8.214;2023-05-07T04:42:55;21.50;53.20
35363;DHT22;21463;47.480;8.214;2023-05-07T04:43:59;20.90;52.80
35363;DHT22;21463;47.480;8.214;2023-05-07T04:45:05;20.90;52.80
35363;DHT22;21463;47.480;8.214;2023-05-07T04:46:09;20.90;52.90
35363;DHT22;21463;47.480;8.214;2023-05-07T04:47:12;21.00;52.90
35363;DHT22;21463;47.480;8.214;2023-05-07T04:48:14;21.00;52.90
35363;DHT22;21463;47.480;8.214;2023-05-07T04:49:17;21.00;52.90
35363;DHT22;21463;47.480;8.214;2023-05-07T04:50:21;21.00;52.90
35363;DHT22;21463;47.480;8.214;2023-05-07T04:51:31;20.90;52.80
35363;DHT22;21463;47.480;8.214;2023-05-07T04:52:35;20.90;52.80
35363;DHT22;21463;47.480;8.214;2023-05-07T04:53:38;20.90;52.80
35363;DHT22;21463;47.480;8.214;2023-05-07T04:54:40;20.90;52.80
35363;DHT22;21463;47.480;8.214;2023-05-07T04:55:43;21.00;52.80
35363;DHT22;21463;47.480;8.214;2023-05-07T04:56:47;20.90;52.80
35363;DHT22;21463;47.480;8.214;2023-05-07T04:57:50;20.90;52.70
35363;DHT22;21463;47.480;8.214;2023-05-07T04:58:52;21.00;52.80
35363;DHT22;21463;47.480;8.214;2023-05-07T04:59:56;21.00;52.80
35363;DHT22;21463;47.480;8.214;2023-05-07T05:00:59;20.90;52.70
35363;DHT22;21463;47.480;8.214;2023-05-07T05:02:04;20.90;52.70
35363;DHT22;21463;47.480;8.214;2023-05-07T05:03:07;21.00;52.80
35363;DHT22;21463;47.480;8.214;2023-05-07T05:04:13;20.90;52.70
35363;DHT22;21463;47.480;8.214;2023-05-07T05:05:15;21.00;52.80
35363;DHT22;21463;47.480;8.214;2023-05-07T05:06:19;21.00;52.80
35363;DHT22;21463;47.480;8.214;2023-05-07T05:07:21;20.90;52.70
35363;DHT22;21463;47.480;8.214;2023-05-07T05:08:24;21.00;52.80
35363;DHT22;21463;47.480;8.214;2023-05-07T05:09:26;21.00;52.70
35363;DHT22;21463;47.480;8.214;2023-05-07T05:10:28;21.00;52.80
35363;DHT22;21463;47.480;8.214;2023-05-07T05:11:47;20.90;52.70
35363;DHT22;21463;47.480;8.214;2023-05-07T05:12:50;21.00;52.70
35363;DHT22;21463;47.480;8.214;2023-05-07T05:13:52;20.90;52.60
35363;DHT22;21463;47.480;8.214;2023-05-07T05:14:55;20.90;52.70
35363;DHT22;21463;47.480;8.214;2023-05-07T05:15:58;21.00;52.70
35363;DHT22;21463;47.480;8.214;2023-05-07T05:17:03;21.00;52.70
35363;DHT22;21463;47.480;8.214;2023-05-07T05:18:05;21.00;52.70
35363;DHT22;21463;47.480;8.214;2023-05-07T05:19:08;21.00;52.70
35363;DHT22;21463;47.480;8.214;2023-05-07T05:20:13;20.90;52.60
35363;DHT22;21463;47.480;8.214;2023-05-07T05:21:16;21.00;52.70
35363;DHT22;21463;47.480;8.214;2023-05-07T05:22:23;21.00;52.70
35363;DHT22;21463;47.480;8.214;2023-05-07T05:23:26;20.90;52.60
35363;DHT22;21463;47.480;8.214;2023-05-07T05:24:28;21.00;52.70
35363;DHT22;21463;47.480;8.214;2023-05-07T05:25:31;21.00;52.70
35363;DHT22;21463;47.480;8.214;2023-05-07T05:26:35;20.90;52.60
35363;DHT22;21463;47.480;8.214;2023-05-07T05:27:37;21.00;52.60
35363;DHT22;21463;47.480;8.214;2023-05-07T05:28:40;20.90;52.60
35363;DHT22;21463;47.480;8.214;2023-05-07T05:29:43;20.90;52.60
35363;DHT22;21463;47.480;8.214;2023-05-07T05:30:45;20.90;52.60
35363;DHT22;21463;47.480;8.214;2023-05-07T05:31:48;20.90;52.60
35363;DHT22;21463;47.480;8.214;2023-05-07T05:32:50;21.00;52.60
35363;DHT22;21463;47.480;8.214;2023-05-07T05:33:53;21.00;52.60
35363;DHT22;21463;47.480;8.214;2023-05-07T05:34:56;21.00;52.60
35363;DHT22;21463;47.480;8.214;2023-05-07T05:35:59;21.00;52.60
35363;DHT22;21463;47.480;8.214;2023-05-07T05:37:02;20.90;52.60
35363;DHT22;21463;47.480;8.214;2023-05-07T05:38:04;21.00;52.60
35363;DHT22;21463;47.480;8.214;2023-05-07T05:39:09;21.00;52.60
35363;DHT22;21463;47.480;8.214;2023-05-07T05:40:12;21.00;52.60
35363;DHT22;21463;47.480;8.214;2023-05-07T05:41:14;21.00;52.60
35363;DHT22;21463;47.480;8.214;2023-05-07T05:42:17;21.00;52.60
35363;DHT22;21463;47.480;8.214;2023-05-07T05:43:19;21.00;52.60
35363;DHT22;21463;47.480;8.214;2023-05-07T05:44:22;20.90;52.50
35363;DHT22;21463;47.480;8.214;2023-05-07T05:45:25;20.90;52.50
35363;DHT22;21463;47.480;8.214;2023-05-07T05:46:27;21.00;52.60
35363;DHT22;21463;47.480;8.214;2023-05-07T05:47:30;21.00;52.60
35363;DHT22;21463;47.480;8.214;2023-05-07T05:48:35;21.00;52.60
35363;DHT22;21463;47.480;8.214;2023-05-07T05:49:41;21.00;52.60
35363;DHT22;21463;47.480;8.214;2023-05-07T05:50:46;21.00;52.60
35363;DHT22;21463;47.480;8.214;2023-05-07T05:51:50;20.90;52.50
35363;DHT22;21463;47.480;8.214;2023-05-07T05:52:53;21.00;52.60
35363;DHT22;21463;47.480;8.214;2023-05-07T05:53:56;21.00;52.60
35363;DHT22;21463;47.480;8.214;2023-05-07T05:54:58;20.90;52.50
35363;DHT22;21463;47.480;8.214;2023-05-07T05:56:02;20.90;52.50
35363;DHT22;21463;47.480;8.214;2023-05-07T05:57:07;20.90;52.50
35363;DHT22;21463;47.480;8.214;2023-05-07T05:58:09;20.90;52.50
35363;DHT22;21463;47.480;8.214;2023-05-07T05:59:15;20.90;52.50
35363;DHT22;21463;47.480;8.214;2023-05-07T06:00:18;21.00;52.50
35363;DHT22;21463;47.480;8.214;2023-05-07T06:01:20;21.60;52.90
35363;DHT22;21463;47.480;8.214;2023-05-07T06:02:25;20.90;52.50
35363;DHT22;21463;47.480;8.214;2023-05-07T06:03:27;20.90;52.50
35363;DHT22;21463;47.480;8.214;2023-05-07T06:04:32;21.00;52.50
35363;DHT22;21463;47.480;8.214;2023-05-07T06:05:34;21.00;52.50
35363;DHT22;21463;47.480;8.214;2023-05-07T06:06:37;21.00;52.50
35363;DHT22;21463;47.480;8.214;2023-05-07T06:07:39;20.80;52.40
35363;DHT22;21463;47.480;8.214;2023-05-07T06:08:42;20.90;52.40
35363;DHT22;21463;47.480;8.214;2023-05-07T06:09:46;20.90;52.50
35363;DHT22;21463;47.480;8.214;2023-05-07T06:10:48;20.90;52.40
35363;DHT22;21463;47.480;8.214;2023-05-07T06:11:51;20.90;52.40
35363;DHT22;21463;47.480;8.214;2023-05-07T06:12:53;21.00;52.50
35363;DHT22;21463;47.480;8.214;2023-05-07T06:13:56;20.90;52.40
35363;DHT22;21463;47.480;8.214;2023-05-07T06:14:58;20.90;52.40
35363;DHT22;21463;47.480;8.214;2023-05-07T06:16:01;21.00;52.50
35363;DHT22;21463;47.480;8.214;2023-05-07T06:17:04;20.90;52.40
35363;DHT22;21463;47.480;8.214;2023-05-07T06:18:07;21.00;52.50
35363;DHT22;21463;47.480;8.214;2023-05-07T06:19:10;20.90;52.40
35363;DHT22;21463;47.480;8.214;2023-05-07T06:20:14;20.90;52.40
35363;DHT22;21463;47.480;8.214;2023-05-07T06:21:17;21.00;52.50
35363;DHT22;21463;47.480;8.214;2023-05-07T06:22:19;21.00;52.50
35363;DHT22;21463;47.480;8.214;2023-05-07T06:23:21;21.00;52.50
35363;DHT22;21463;47.480;8.214;2023-05-07T06:24:24;20.90;52.40
35363;DHT22;21463;47.480;8.214;2023-05-07T06:25:28;21.00;52.50
35363;DHT22;21463;47.480;8.214;2023-05-07T06:26:30;21.00;52.50
35363;DHT22;21463;47.480;8.214;2023-05-07T06:27:32;21.00;52.50
35363;DHT22;21463;47.480;8.214;2023-05-07T06:28:35;20.90;52.40
35363;DHT22;21463;47.480;8.214;2023-05-07T06:29:44;21.00;52.50
35363;DHT22;21463;47.480;8.214;2023-05-07T06:30:50;21.00;52.50
35363;DHT22;21463;47.480;8.214;2023-05-07T06:31:53;20.90;52.40
35363;DHT22;21463;47.480;8.214;2023-05-07T06:32:57;20.90;52.40
35363;DHT22;21463;47.480;8.214;2023-05-07T06:34:00;20.80;52.40
35363;DHT22;21463;47.480;8.214;2023-05-07T06:35:09;21.00;52.40
35363;DHT22;21463;47.480;8.214;2023-05-07T06:36:13;20.90;52.40
35363;DHT22;21463;47.480;8.214;2023-05-07T06:37:16;20.90;52.40
35363;DHT22;21463;47.480;8.214;2023-05-07T06:38:28;20.90;52.40
35363;DHT22;21463;47.480;8.214;2023-05-07T06:39:31;20.90;52.40
35363;DHT22;21463;47.480;8.214;2023-05-07T06:40:33;20.90;52.40
35363;DHT22;21463;47.480;8.214;2023-05-07T06:41:37;21.00;52.50
35363;DHT22;21463;47.480;8.214;2023-05-07T06:42:43;21.00;52.50